Search for airport 
image banner adimage banner adimage banner ad
image banner ad

2NV3 - Vista Del Monte Lot 55

Located in Mesquite, United States

ICAO - 2NV3, IATA -

Data provided by Airmate  

General information

Coordinates: N36°50'16" W114°3'2"
Elevation is 1978 feet MSL.
 
View others Airports in Nevada

Operational data

Special qualification required
Current time UTC:
Current local time:
Weather at : KSGU - St George Rgnl ( 53 km )
METAR: KSGU 130956Z AUTO 15004KT 10SM CLR 22/M12 A2990 RMK AO2 SLP083 T02221122
TAF: KSGU 130520Z 1306/1406 VRB05KT P6SM FEW250 FM132000 24015G26KT P6SM SKC FM140300 24011KT P6SM SKC
View NOTAMs / SUP AIP / TFR affecting this airport [VIEW]
Communications frequencies: [VIEW]

Runways:

Airport contact information

Address: Mesquite United States

Satellite view of 2NV3